Huvudsida
METAR-TAF:

METAR-TAF

Flygplatser :

Curaçaos internationella flygplats

Curaçao, Nederländska Antillerna

latitud: 12-12N, longitud: 068-58W, höjd: 9 m

Aktuellt väderrapport

Denna rapport gjordes för 26 minuter sedan, klockan 21:00 UTC
Vind 10 kt från ost
Temperatur 30°C
Fuktighet 66%
Tryck 1013 hPa
Sikt 10 km eller mer

METAR: TNCC 162100Z AUTO 09010KT 9999 ////// 30/23 Q1013 NOSIG

Tid: 17:26 (21:26 UTC)

Väderprognos

Denna rapport gjordes för 5 timmar och 26 minuter sedan, klockan 16:00 UTC
Prognos gäller från 16 kl. 18 UTC till 17 kl. 18 UTC
Vind 14 kt från ost/sydost
Sikt 10 km eller mer
Spridda moln på en höjd av 2000 ft

TAF: TNCC 161600Z 1618/1718 11014KT 9999 SCT020

Aktuella väderrapporter och prognoser från 4000 flygplatser (METAR- och TAF-rapporter).

De tillgängliga stationerna syns som gula och röda prickar på kartan.

För musen över prickarna för att se namnen på stationerna.

Klicka sedan för att få väderrapporter och prognoser.

För att ändra kartan: Klicka på de gröna knapparna med ett svart kors på för att zooma in; den gröna knappen med ett streck på för att zooma ut; eller på de gröna pilarna för angränsande kartor.


METAR-TAF: